createdAt,value
2023-01-24T00:01:26.676Z,16.63
2023-01-24T00:03:56.559Z,10.90
2023-01-24T00:06:24.506Z,14.60
2023-01-24T00:08:52.522Z,13.80
2023-01-24T00:11:20.450Z,11.63
2023-01-24T00:13:48.323Z,12.77
2023-01-24T00:16:18.232Z,12.13
2023-01-24T00:18:46.691Z,13.67
2023-01-24T00:21:17.708Z,13.33
2023-01-24T00:23:47.406Z,13.90
2023-01-24T00:26:16.633Z,14.07
2023-01-24T00:28:48.251Z,13.07
2023-01-24T00:31:16.840Z,19.37
2023-01-24T00:33:44.880Z,11.73
2023-01-24T00:36:13.590Z,16.03
2023-01-24T00:38:42.960Z,14.20
2023-01-24T00:41:11.040Z,14.87
2023-01-24T00:43:38.982Z,11.20
2023-01-24T00:46:07.814Z,12.73
2023-01-24T00:48:36.031Z,13.47
2023-01-24T00:51:04.711Z,13.23
2023-01-24T00:53:32.733Z,12.70
2023-01-24T00:56:02.483Z,13.77
2023-01-24T00:58:30.446Z,15.67
2023-01-24T01:01:01.343Z,11.70
2023-01-24T01:03:29.485Z,15.03
2023-01-24T01:06:01.476Z,12.40
2023-01-24T01:08:29.731Z,12.40
2023-01-24T01:10:57.553Z,13.57
2023-01-24T01:13:27.119Z,13.10
2023-01-24T01:16:02.209Z,16.07
2023-01-24T01:18:30.108Z,13.10
2023-01-24T01:20:57.973Z,15.93
2023-01-24T01:23:25.968Z,16.50
2023-01-24T01:25:54.046Z,14.87
2023-01-24T01:28:21.956Z,11.33
2023-01-24T01:30:54.788Z,13.10
2023-01-24T01:33:23.189Z,14.90
2023-01-24T01:35:52.407Z,13.70
2023-01-24T01:38:21.669Z,12.77
2023-01-24T01:40:49.591Z,13.87
2023-01-24T01:43:19.922Z,14.40
2023-01-24T01:45:49.061Z,12.80
2023-01-24T01:48:23.102Z,12.77
2023-01-24T01:50:58.883Z,12.43
2023-01-24T01:53:32.677Z,12.53
2023-01-24T01:56:04.725Z,13.77
2023-01-24T01:58:33.690Z,16.23
2023-01-24T02:01:01.554Z,19.23
2023-01-24T02:03:40.614Z,16.77
2023-01-24T02:06:30.787Z,15.60
2023-01-24T02:09:00.016Z,16.57
2023-01-24T02:11:41.909Z,12.53
2023-01-24T02:14:30.406Z,16.47
2023-01-24T02:16:58.759Z,13.03
2023-01-24T02:19:43.554Z,13.50
2023-01-24T02:22:17.398Z,14.47
2023-01-24T02:24:54.335Z,12.33
2023-01-24T02:27:23.668Z,11.50
2023-01-24T02:29:52.032Z,15.20
2023-01-24T02:32:21.579Z,15.53
2023-01-24T02:34:50.067Z,15.20
2023-01-24T02:37:21.763Z,16.70
2023-01-24T02:39:55.756Z,13.67
2023-01-24T02:42:27.833Z,12.60
2023-01-24T02:45:06.093Z,15.50
2023-01-24T02:47:39.044Z,14.47
2023-01-24T02:50:09.264Z,14.97
2023-01-24T02:52:55.100Z,13.90
2023-01-24T02:55:24.385Z,11.60
2023-01-24T02:58:07.443Z,14.97
2023-01-24T03:00:39.534Z,15.37
2023-01-24T03:03:09.847Z,10.70
2023-01-24T03:05:57.332Z,12.13
2023-01-24T03:08:33.708Z,11.00
2023-01-24T03:11:04.256Z,13.03
2023-01-24T03:13:52.980Z,14.67
2023-01-24T03:16:40.049Z,14.27
2023-01-24T03:19:25.706Z,14.37
2023-01-24T03:22:11.230Z,13.83
2023-01-24T03:24:56.677Z,13.20
2023-01-24T03:27:42.486Z,15.03
2023-01-24T03:30:32.348Z,15.47
2023-01-24T03:33:18.314Z,15.40
2023-01-24T03:35:54.596Z,13.10
2023-01-24T03:38:43.348Z,14.00
2023-01-24T03:41:12.343Z,13.57
2023-01-24T03:43:42.338Z,13.30
2023-01-24T03:46:12.895Z,11.90
2023-01-24T03:48:51.085Z,10.43
2023-01-24T03:51:39.573Z,15.17
2023-01-24T03:54:08.665Z,14.57
2023-01-24T03:56:52.965Z,14.23
2023-01-24T03:59:22.984Z,16.37
2023-01-24T04:01:52.371Z,13.57
2023-01-24T04:04:48.001Z,12.37
2023-01-24T04:07:26.518Z,14.37
2023-01-24T04:10:01.857Z,15.40
2023-01-24T04:12:34.570Z,14.70
2023-01-24T04:15:03.413Z,16.13
2023-01-24T04:17:33.046Z,10.80
2023-01-24T04:20:01.089Z,11.27
2023-01-24T04:22:28.959Z,15.33
2023-01-24T04:24:59.650Z,12.43
2023-01-24T04:27:32.328Z,13.70
2023-01-24T04:30:12.034Z,15.27
2023-01-24T04:32:43.830Z,14.30
2023-01-24T04:35:26.727Z,14.67
2023-01-24T04:38:00.299Z,14.00
2023-01-24T04:40:42.366Z,13.27
2023-01-24T04:43:10.667Z,14.00
2023-01-24T04:45:40.836Z,14.13
2023-01-24T04:48:12.437Z,11.97
2023-01-24T04:50:41.210Z,13.67
2023-01-24T04:53:09.138Z,12.83
2023-01-24T04:55:37.531Z,15.73
2023-01-24T04:58:05.602Z,13.37
2023-01-24T05:00:33.874Z,13.57
2023-01-24T05:03:01.836Z,14.37
2023-01-24T05:05:31.526Z,14.70
2023-01-24T05:07:59.409Z,15.07
2023-01-24T05:10:27.586Z,14.20
2023-01-24T05:12:55.447Z,14.00
2023-01-24T05:15:25.057Z,13.23
2023-01-24T05:17:53.778Z,12.60
2023-01-24T05:20:24.941Z,17.13
2023-01-24T05:22:56.817Z,16.13
2023-01-24T05:25:26.792Z,17.20
2023-01-24T05:27:55.751Z,14.47
2023-01-24T05:30:24.702Z,12.80
2023-01-24T05:32:57.654Z,15.23
2023-01-24T05:35:26.195Z,17.10
2023-01-24T05:37:56.582Z,18.53
2023-01-24T05:40:25.968Z,15.60
2023-01-24T05:42:53.893Z,16.77
2023-01-24T05:45:23.051Z,14.60
2023-01-24T05:47:51.500Z,18.00
2023-01-24T05:50:20.833Z,15.73
2023-01-24T05:53:10.138Z,14.10
2023-01-24T05:55:38.099Z,14.10
2023-01-24T05:58:06.037Z,14.43
2023-01-24T06:00:39.678Z,14.13
2023-01-24T06:03:29.145Z,15.90
2023-01-24T06:05:58.316Z,18.23
2023-01-24T06:08:31.458Z,16.97
2023-01-24T06:11:04.482Z,14.77
2023-01-24T06:13:32.947Z,14.57
2023-01-24T06:16:06.409Z,14.00
2023-01-24T06:18:35.260Z,15.40
2023-01-24T06:21:07.923Z,14.33
2023-01-24T06:23:37.781Z,13.77
2023-01-24T06:26:10.259Z,14.30
2023-01-24T06:28:38.433Z,15.20
2023-01-24T06:31:13.461Z,16.07
2023-01-24T06:33:51.656Z,20.70
2023-01-24T06:36:31.377Z,18.70
2023-01-24T06:39:01.321Z,20.20
2023-01-24T06:41:29.768Z,21.33
2023-01-24T06:43:58.158Z,17.57
2023-01-24T06:46:26.145Z,15.53
2023-01-24T06:48:54.056Z,19.20
2023-01-24T06:51:22.592Z,20.30
2023-01-24T06:53:50.451Z,15.97
2023-01-24T06:56:19.807Z,16.03
2023-01-24T06:58:48.304Z,17.83
2023-01-24T07:01:16.235Z,18.20
2023-01-24T07:03:44.095Z,20.17
2023-01-24T07:06:12.012Z,20.20
2023-01-24T07:08:39.900Z,17.30
2023-01-24T07:11:07.757Z,16.97
2023-01-24T07:13:37.025Z,16.67
2023-01-24T07:16:05.305Z,17.90
2023-01-24T07:18:33.787Z,18.70
2023-01-24T07:21:02.206Z,17.93
2023-01-24T07:23:32.280Z,18.83
2023-01-24T07:26:01.406Z,20.70
2023-01-24T07:28:29.299Z,15.00
2023-01-24T07:30:59.011Z,18.70
2023-01-24T07:33:26.872Z,16.33
2023-01-24T07:36:02.177Z,17.93
2023-01-24T07:38:31.599Z,16.87
2023-01-24T07:40:59.665Z,18.43
2023-01-24T07:43:35.167Z,16.60
2023-01-24T07:46:07.543Z,14.53
2023-01-24T07:48:36.064Z,18.00
2023-01-24T07:51:07.320Z,19.03
2023-01-24T07:53:36.402Z,17.87
2023-01-24T07:56:06.971Z,17.80
2023-01-24T07:58:36.673Z,18.60
2023-01-24T08:01:04.797Z,18.70
2023-01-24T08:03:34.587Z,18.17
2023-01-24T08:06:05.329Z,17.47
2023-01-24T08:08:33.169Z,17.10
2023-01-24T08:11:00.955Z,15.47
2023-01-24T08:13:28.756Z,16.00
2023-01-24T08:15:56.549Z,17.40
2023-01-24T08:18:24.326Z,12.77
2023-01-24T08:20:56.308Z,15.87
2023-01-24T08:23:24.352Z,12.77
2023-01-24T08:25:52.396Z,16.60
2023-01-24T08:28:20.440Z,16.20
2023-01-24T08:30:48.445Z,18.03
2023-01-24T08:33:18.837Z,16.90
2023-01-24T08:35:47.276Z,15.57
2023-01-24T08:38:17.646Z,15.80
2023-01-24T08:40:49.819Z,14.80
2023-01-24T09:28:03.112Z,12.15
2023-01-24T09:30:31.180Z,14.07
2023-01-24T09:32:59.025Z,13.23
2023-01-24T09:35:26.868Z,13.33
2023-01-24T09:37:54.697Z,13.23
2023-01-24T09:40:25.950Z,11.53
2023-01-24T09:43:02.542Z,13.80
2023-01-24T09:45:36.648Z,13.90
2023-01-24T09:48:08.143Z,15.70
2023-01-24T09:50:42.773Z,14.10
2023-01-24T09:53:18.638Z,14.87
2023-01-24T09:55:48.004Z,14.17
2023-01-24T09:58:32.570Z,13.70
2023-01-24T10:01:07.784Z,16.67
2023-01-24T10:03:37.755Z,15.93
2023-01-24T10:06:15.799Z,16.03
2023-01-24T10:08:53.811Z,14.77
2023-01-24T10:11:30.982Z,12.40
2023-01-24T10:14:21.727Z,17.30
2023-01-24T10:17:22.927Z,14.10
2023-01-24T10:20:06.834Z,13.20
2023-01-24T10:22:56.943Z,16.30
2023-01-24T10:25:28.271Z,12.60
2023-01-24T10:27:59.454Z,12.27
2023-01-24T10:30:36.299Z,16.97
2023-01-24T10:33:14.387Z,14.07
2023-01-24T10:35:54.173Z,13.67
2023-01-24T10:38:22.170Z,14.27
2023-01-24T10:40:51.907Z,18.40
2023-01-24T10:43:21.642Z,13.63
2023-01-24T10:45:59.370Z,14.53
2023-01-24T10:48:40.796Z,14.57
2023-01-24T10:51:14.484Z,13.27
2023-01-24T10:53:42.536Z,12.87
2023-01-24T10:56:10.799Z,13.67
2023-01-24T10:58:42.538Z,14.73
2023-01-24T11:01:19.654Z,12.83
2023-01-24T11:03:50.669Z,12.63
2023-01-24T11:06:25.817Z,12.13
2023-01-24T11:09:03.132Z,12.97
2023-01-24T11:11:34.446Z,14.00
2023-01-24T11:14:04.158Z,14.00
2023-01-24T11:16:35.935Z,12.27
2023-01-24T11:19:07.502Z,14.20
2023-01-24T11:21:53.523Z,15.07
2023-01-24T11:24:22.829Z,15.63
2023-01-24T11:26:57.729Z,16.67
2023-01-24T11:29:27.677Z,15.97
2023-01-24T11:32:01.700Z,13.90
2023-01-24T11:34:52.732Z,14.80
2023-01-24T11:37:43.327Z,14.43
2023-01-24T11:40:30.500Z,19.50
2023-01-24T11:43:13.109Z,16.77
2023-01-24T11:45:56.919Z,15.33
2023-01-24T11:48:32.865Z,15.50
2023-01-24T11:51:14.031Z,12.73
2023-01-24T11:53:54.897Z,14.43
2023-01-24T11:56:33.465Z,17.50
2023-01-24T11:59:36.680Z,15.70
2023-01-24T12:02:25.239Z,13.47
2023-01-24T12:05:11.008Z,16.20
2023-01-24T12:07:51.900Z,15.07
2023-01-24T12:10:27.050Z,14.47
2023-01-24T12:13:05.057Z,15.83
2023-01-24T12:15:40.527Z,15.60
2023-01-24T12:18:22.099Z,16.23
2023-01-24T12:20:59.799Z,16.10
2023-01-24T12:23:39.430Z,14.30
2023-01-24T12:26:15.429Z,14.50
2023-01-24T12:28:53.201Z,15.07
2023-01-24T12:31:30.130Z,17.00
2023-01-24T12:34:03.180Z,14.40
2023-01-24T12:36:37.724Z,16.70
2023-01-24T12:39:15.996Z,16.20
2023-01-24T12:41:49.461Z,15.47
2023-01-24T12:44:28.027Z,15.53
2023-01-24T12:47:10.825Z,16.27
2023-01-24T12:49:47.910Z,15.90
2023-01-24T12:52:24.616Z,15.47
2023-01-24T12:54:58.725Z,14.90
2023-01-24T12:57:31.380Z,11.00
2023-01-24T13:00:01.302Z,13.40
2023-01-24T13:02:46.125Z,13.50
2023-01-24T13:05:29.817Z,13.80
2023-01-24T13:08:10.964Z,13.20
2023-01-24T13:10:52.909Z,15.60
2023-01-24T13:13:25.816Z,14.17
2023-01-24T13:16:08.074Z,14.57
2023-01-24T13:18:50.665Z,15.67
2023-01-24T13:21:26.524Z,14.90
2023-01-24T13:24:08.411Z,15.43
2023-01-24T13:26:52.339Z,14.77
2023-01-24T13:29:33.483Z,13.37
2023-01-24T13:32:09.006Z,13.20
2023-01-24T13:34:43.462Z,13.50
2023-01-24T13:37:20.424Z,13.80
2023-01-24T13:39:49.502Z,13.67
2023-01-24T13:42:24.484Z,14.83
2023-01-24T13:44:52.896Z,13.07
2023-01-24T13:47:34.253Z,13.67
2023-01-24T13:50:21.186Z,13.40
2023-01-24T13:52:51.357Z,13.83
2023-01-24T13:55:58.512Z,13.70
2023-01-24T13:58:29.788Z,15.07
2023-01-24T14:01:00.967Z,12.80
2023-01-24T14:03:32.632Z,16.50
2023-01-24T14:06:13.717Z,17.07
2023-01-24T14:09:04.171Z,13.10
2023-01-24T14:11:39.148Z,16.17
2023-01-24T14:14:32.038Z,13.13
2023-01-24T14:17:22.658Z,17.43
2023-01-24T14:19:51.789Z,15.70
2023-01-24T14:22:25.188Z,11.17
2023-01-24T14:25:05.584Z,16.27
2023-01-24T14:27:38.768Z,14.70
2023-01-24T14:30:36.731Z,16.70
2023-01-24T14:33:15.882Z,12.90
2023-01-24T14:35:56.942Z,13.70
2023-01-24T14:38:26.973Z,12.07
2023-01-24T14:40:56.391Z,14.50
2023-01-24T14:43:30.095Z,14.63
2023-01-24T14:45:59.527Z,15.47
2023-01-24T14:48:27.657Z,12.30
2023-01-24T14:51:00.452Z,14.90
2023-01-24T14:53:31.088Z,13.07
2023-01-24T14:56:03.938Z,18.80
2023-01-24T14:58:31.945Z,14.27
2023-01-24T15:01:03.243Z,17.60
2023-01-24T15:03:32.971Z,15.53
2023-01-24T15:06:02.940Z,14.37
2023-01-24T15:08:32.292Z,13.47
2023-01-24T15:11:04.029Z,16.20
2023-01-24T15:13:36.008Z,16.43
2023-01-24T15:16:07.435Z,14.33
2023-01-24T15:18:42.974Z,17.00
2023-01-24T15:21:26.535Z,14.60
2023-01-24T15:23:56.919Z,15.10
2023-01-24T15:26:37.902Z,17.67
2023-01-24T15:29:38.781Z,15.53
2023-01-24T15:32:24.161Z,14.37
2023-01-24T15:34:52.320Z,13.63
2023-01-24T15:37:20.262Z,14.13
2023-01-24T15:39:48.223Z,14.30
2023-01-24T15:42:35.154Z,12.37
2023-01-24T15:45:04.406Z,13.67
2023-01-24T15:47:50.456Z,13.00
2023-01-24T15:50:37.830Z,15.33
2023-01-24T15:53:24.847Z,16.63
2023-01-24T15:55:54.174Z,14.17
2023-01-24T15:58:22.083Z,12.40
2023-01-24T16:00:54.648Z,14.70
2023-01-24T16:03:23.918Z,16.40
2023-01-24T16:05:51.961Z,12.67
2023-01-24T16:08:20.097Z,14.37
2023-01-24T16:10:49.234Z,13.60
2023-01-24T16:13:29.365Z,14.43
2023-01-24T16:15:58.277Z,16.33
2023-01-24T16:18:29.661Z,14.37
2023-01-24T16:20:57.598Z,15.23
2023-01-24T16:23:25.527Z,20.13
2023-01-24T16:25:56.276Z,17.17
2023-01-24T16:28:26.317Z,14.50
2023-01-24T16:30:56.401Z,16.50
2023-01-24T16:33:24.956Z,18.40
2023-01-24T16:35:54.324Z,15.40
2023-01-24T16:38:22.982Z,14.93
2023-01-24T16:40:50.941Z,14.43
2023-01-24T16:43:21.217Z,17.47
2023-01-24T16:45:51.943Z,14.97
2023-01-24T16:48:19.979Z,13.33
2023-01-24T16:50:48.037Z,14.60
2023-01-24T16:53:17.880Z,13.63
2023-01-24T16:55:55.986Z,16.43
2023-01-24T16:58:24.150Z,17.50
2023-01-24T17:00:52.014Z,11.60
2023-01-24T17:03:19.985Z,14.73
2023-01-24T17:05:47.857Z,14.73
2023-01-24T17:08:17.336Z,12.03
2023-01-24T17:10:45.634Z,15.93
2023-01-24T17:13:13.454Z,14.00
2023-01-24T17:15:42.736Z,10.50
2023-01-24T17:18:11.293Z,17.40
2023-01-24T17:20:39.582Z,14.20
2023-01-24T17:23:07.733Z,15.53
2023-01-24T17:25:37.073Z,15.00
2023-01-24T17:28:05.403Z,16.20
2023-01-24T17:30:33.312Z,19.53
2023-01-24T17:33:02.099Z,22.50
2023-01-24T17:35:29.925Z,20.03
2023-01-24T17:37:57.791Z,21.43
2023-01-24T17:40:25.650Z,18.10
2023-01-24T17:42:54.950Z,20.47
2023-01-24T17:45:22.912Z,18.67
2023-01-24T17:47:52.456Z,18.27
2023-01-24T17:50:21.501Z,19.23
2023-01-24T17:52:49.449Z,16.27
2023-01-24T17:55:17.702Z,17.33
2023-01-24T17:57:45.607Z,18.43
2023-01-24T18:00:15.709Z,21.40
2023-01-24T18:02:47.294Z,19.13
2023-01-24T18:05:15.435Z,19.20
2023-01-24T18:07:43.369Z,16.77
2023-01-24T18:10:14.179Z,20.73
2023-01-24T18:12:42.334Z,18.33
2023-01-24T18:15:11.487Z,18.40
2023-01-24T18:17:40.904Z,18.83
2023-01-24T18:20:10.077Z,15.23
2023-01-24T18:22:41.760Z,16.33
2023-01-24T18:25:10.281Z,18.33
2023-01-24T18:27:38.295Z,18.83
2023-01-24T18:30:08.377Z,19.03
2023-01-24T18:32:36.325Z,20.47
2023-01-24T18:35:06.674Z,16.33
2023-01-24T18:37:34.910Z,17.37
2023-01-24T18:40:02.881Z,19.43
2023-01-24T18:42:32.300Z,18.83
2023-01-24T18:45:00.216Z,18.20
2023-01-24T18:47:28.165Z,18.20
2023-01-24T18:49:56.043Z,19.43
2023-01-24T18:52:25.283Z,16.43
2023-01-24T18:54:53.157Z,18.10
2023-01-24T18:57:21.566Z,20.13
2023-01-24T18:59:49.627Z,17.70
2023-01-24T19:02:17.735Z,17.10
2023-01-24T19:04:45.603Z,17.43
2023-01-24T19:07:13.520Z,16.50
2023-01-24T19:09:42.680Z,19.10
2023-01-24T19:12:11.469Z,17.00
2023-01-24T19:14:39.325Z,16.63
2023-01-24T19:17:07.301Z,15.70
2023-01-24T19:19:35.248Z,16.60
2023-01-24T19:22:07.952Z,15.47
2023-01-24T19:24:36.672Z,17.73
2023-01-24T19:27:05.940Z,14.70
2023-01-24T19:29:33.922Z,15.90
2023-01-24T19:32:01.979Z,16.63
2023-01-24T19:34:29.994Z,16.50
2023-01-24T19:36:58.087Z,16.33
2023-01-24T19:39:26.349Z,16.80
2023-01-24T19:41:54.287Z,18.97
2023-01-24T19:44:25.945Z,17.70
2023-01-24T19:46:53.984Z,19.70
2023-01-24T19:49:21.903Z,18.90
2023-01-24T19:51:49.910Z,20.80
2023-01-24T19:54:17.995Z,17.60
2023-01-24T19:56:45.938Z,15.33
2023-01-24T19:59:13.928Z,14.47
2023-01-24T20:01:43.436Z,18.80
2023-01-24T20:04:23.156Z,16.97
2023-01-24T20:06:52.672Z,16.97
2023-01-24T20:09:20.596Z,17.10
2023-01-24T20:11:48.664Z,20.03
2023-01-24T20:14:16.569Z,17.60
2023-01-24T20:16:45.960Z,17.10
2023-01-24T20:19:27.204Z,20.60
2023-01-24T20:21:57.108Z,18.37
2023-01-24T20:24:25.083Z,20.40
2023-01-24T20:26:53.572Z,21.70
2023-01-24T20:29:21.736Z,22.63
2023-01-24T20:31:51.104Z,20.63
2023-01-24T20:34:19.401Z,22.00
2023-01-24T20:36:48.343Z,21.83
2023-01-24T20:39:17.348Z,21.53
2023-01-24T20:41:46.436Z,21.53
2023-01-24T20:44:25.619Z,17.87
2023-01-24T20:46:55.889Z,18.93
2023-01-24T20:49:24.592Z,23.60
2023-01-24T20:51:52.513Z,21.97
2023-01-24T20:54:21.865Z,17.90
2023-01-24T20:56:54.641Z,20.40
2023-01-24T20:59:22.866Z,17.80
2023-01-24T21:01:50.896Z,22.30
2023-01-24T21:04:20.706Z,22.53
2023-01-24T21:06:49.293Z,23.33
2023-01-24T21:09:18.054Z,25.40
2023-01-24T21:11:47.651Z,22.67
2023-01-24T21:14:16.779Z,25.17
2023-01-24T21:16:45.266Z,22.77
2023-01-24T21:19:18.494Z,22.53
2023-01-24T21:21:49.951Z,25.93
2023-01-24T21:24:32.306Z,30.73
2023-01-24T21:27:02.020Z,22.63
2023-01-24T21:29:30.022Z,21.93
2023-01-24T21:31:58.112Z,22.70
2023-01-24T21:34:26.223Z,17.50
2023-01-24T21:36:55.590Z,25.80
2023-01-24T21:39:25.126Z,19.63
2023-01-24T21:41:56.380Z,23.30
2023-01-24T21:44:25.360Z,19.63
2023-01-24T21:46:54.165Z,24.97
2023-01-24T21:49:22.143Z,22.33
2023-01-24T21:51:50.991Z,27.37
2023-01-24T21:54:21.912Z,27.00
2023-01-24T21:57:23.979Z,24.10
2023-01-24T21:59:57.272Z,25.00
2023-01-24T22:02:27.626Z,20.27
2023-01-24T22:04:55.812Z,28.83
2023-01-24T22:07:26.030Z,22.73
2023-01-24T22:09:56.286Z,26.03
2023-01-24T22:12:24.958Z,25.40
2023-01-24T22:14:53.773Z,22.90
2023-01-24T22:17:24.502Z,25.07
2023-01-24T22:19:55.343Z,23.83
2023-01-24T22:23:10.590Z,24.20
2023-01-24T22:25:51.381Z,21.63
2023-01-24T22:28:21.871Z,25.47
2023-01-24T22:30:50.258Z,23.97
2023-01-24T22:33:18.721Z,23.80
2023-01-24T22:35:48.793Z,28.97
2023-01-24T22:38:16.714Z,25.67
2023-01-24T22:40:45.894Z,25.00
2023-01-24T22:43:14.793Z,24.80
2023-01-24T22:45:42.662Z,21.87
2023-01-24T22:48:14.698Z,24.77
2023-01-24T22:50:42.795Z,19.93
2023-01-24T22:53:11.570Z,23.10
2023-01-24T22:55:39.722Z,21.00
2023-01-24T22:58:09.250Z,21.37
2023-01-24T23:00:37.268Z,25.93
2023-01-24T23:03:05.348Z,23.63
2023-01-24T23:05:33.211Z,23.00
2023-01-24T23:08:01.153Z,22.83
2023-01-24T23:10:29.190Z,17.53
2023-01-24T23:13:14.785Z,25.03
2023-01-24T23:16:01.443Z,17.57
2023-01-24T23:18:43.817Z,22.13
2023-01-24T23:21:31.192Z,21.30
2023-01-24T23:23:59.658Z,20.70
2023-01-24T23:26:27.810Z,21.40
2023-01-24T23:29:06.123Z,23.43
2023-01-24T23:31:35.510Z,21.53
2023-01-24T23:34:03.929Z,17.70
2023-01-24T23:36:33.889Z,20.30
2023-01-24T23:39:01.701Z,16.10
2023-01-24T23:41:29.508Z,18.23
2023-01-24T23:43:57.309Z,19.93
2023-01-24T23:46:25.177Z,19.70
2023-01-24T23:48:56.174Z,22.90
2023-01-24T23:51:25.270Z,22.30
2023-01-24T23:53:54.277Z,15.90
2023-01-24T23:56:23.020Z,16.03
2023-01-24T23:58:50.900Z,17.23
